Time;durP1;ratioP1;P1;durP2;ratioP2;P2;SDS_P1;SDS_P2;PMS_P1;PMS_P2;Temp;Humidity;BMP_temperature;BMP_pressure;BME280_temperature;BME280_humidity;BME280_pressure;Samples;Min_cycle;Max_cycle;Signal;HPM_P1;HPM_P2
2023/04/16 00:02:16;;;;;;;8.13;7.20;;;9.70;99.90;;;;;;5031191;28;20496;-71
2023/04/16 00:05:02;;;;;;;9.23;6.53;;;9.70;99.90;;;;;;5023768;28;20445;-71
2023/04/16 00:07:50;;;;;;;8.57;6.77;;;9.80;99.90;;;;;;5025503;28;20828;-70
2023/04/16 00:10:37;;;;;;;8.33;6.90;;;9.70;99.90;;;;;;5020868;28;20474;-72
2023/04/16 00:13:24;;;;;;;8.40;6.83;;;9.70;99.90;;;;;;5028369;28;20800;-71
2023/04/16 00:16:10;;;;;;;8.80;7.40;;;9.70;99.90;;;;;;5023822;28;20478;-71
2023/04/16 00:18:56;;;;;;;9.13;7.83;;;9.70;99.90;;;;;;5033271;28;20441;-71
2023/04/16 00:21:41;;;;;;;8.50;7.60;;;9.70;99.90;;;;;;5034106;28;20574;-72
2023/04/16 00:24:27;;;;;;;8.67;7.73;;;9.70;99.90;;;;;;5025907;28;20449;-72
2023/04/16 00:27:14;;;;;;;8.70;7.30;;;9.60;99.90;;;;;;5024543;28;20468;-71
2023/04/16 00:30:00;;;;;;;11.47;8.80;;;9.60;99.90;;;;;;5025233;28;20942;-71
2023/04/16 00:32:45;;;;;;;12.70;10.90;;;9.70;99.90;;;;;;5023618;28;20599;-72
2023/04/16 00:35:31;;;;;;;13.40;9.97;;;9.70;99.90;;;;;;5019648;28;20966;-72
2023/04/16 00:38:17;;;;;;;14.60;10.43;;;9.70;99.90;;;;;;5023737;28;21004;-71
2023/04/16 00:41:02;;;;;;;11.90;9.40;;;9.70;99.90;;;;;;5023027;28;20515;-70
2023/04/16 00:43:49;;;;;;;12.77;9.77;;;9.70;99.90;;;;;;5025942;28;20437;-70
2023/04/16 00:46:36;;;;;;;13.20;10.20;;;9.80;99.90;;;;;;5021408;28;20503;-70
2023/04/16 00:49:22;;;;;;;14.73;12.60;;;9.80;99.90;;;;;;5024172;28;20426;-71
2023/04/16 00:52:08;;;;;;;14.30;10.77;;;9.80;99.90;;;;;;5022681;28;20524;-72
2023/04/16 00:54:54;;;;;;;15.27;10.93;;;9.80;99.90;;;;;;5022710;28;20492;-72
2023/04/16 00:57:40;;;;;;;12.80;10.30;;;9.70;99.90;;;;;;5020010;28;20869;-71
2023/04/16 01:00:27;;;;;;;13.73;9.63;;;9.70;99.90;;;;;;5025110;28;20803;-72
2023/04/16 01:03:12;;;;;;;12.40;9.00;;;9.70;99.90;;;;;;5023471;28;20462;-71
2023/04/16 01:05:58;;;;;;;13.40;10.43;;;9.70;99.90;;;;;;5023079;28;20446;-71
2023/04/16 01:08:44;;;;;;;13.20;10.07;;;9.80;99.90;;;;;;5031522;28;20448;-71
2023/04/16 01:11:30;;;;;;;11.80;9.30;;;9.80;99.90;;;;;;5039549;28;20444;-71
2023/04/16 01:14:15;;;;;;;15.13;9.60;;;9.80;99.90;;;;;;5026417;28;20960;-71
2023/04/16 01:17:03;;;;;;;10.90;8.37;;;9.80;99.90;;;;;;5028455;28;20497;-71
2023/04/16 01:19:48;;;;;;;12.87;10.53;;;9.70;99.90;;;;;;5028607;28;20424;-71
2023/04/16 01:22:36;;;;;;;11.60;8.90;;;9.70;99.90;;;;;;5026420;28;20442;-71
2023/04/16 01:25:21;;;;;;;12.20;9.47;;;9.70;99.90;;;;;;5028713;28;20450;-72
2023/04/16 01:28:07;;;;;;;13.70;9.43;;;9.80;99.90;;;;;;5024435;28;22653;-72
2023/04/16 01:30:53;;;;;;;12.80;9.40;;;9.80;99.90;;;;;;5019044;28;20460;-72
2023/04/16 01:33:39;;;;;;;13.73;9.57;;;9.80;99.90;;;;;;5027742;28;20412;-71
2023/04/16 01:36:25;;;;;;;11.27;8.87;;;9.80;99.90;;;;;;5026933;28;20486;-70
2023/04/16 01:39:14;;;;;;;13.77;9.50;;;9.80;99.90;;;;;;5026294;28;20423;-72
2023/04/16 01:42:00;;;;;;;13.80;8.30;;;9.60;99.90;;;;;;5032233;28;20416;-72
2023/04/16 01:44:47;;;;;;;12.03;9.00;;;9.70;99.90;;;;;;5025415;28;20467;-72
2023/04/16 01:47:33;;;;;;;10.70;8.37;;;9.60;99.90;;;;;;5026680;28;20553;-71
2023/04/16 01:50:19;;;;;;;9.50;8.20;;;9.60;99.90;;;;;;5027857;28;20447;-72
2023/04/16 01:53:04;;;;;;;11.10;9.20;;;9.60;99.90;;;;;;5028373;28;20458;-73
2023/04/16 01:55:51;;;;;;;10.73;8.50;;;9.70;99.90;;;;;;5027027;28;20447;-71
2023/04/16 01:58:37;;;;;;;10.50;9.00;;;9.70;99.90;;;;;;5037977;28;20416;-71
2023/04/16 02:01:23;;;;;;;14.20;9.27;;;9.70;99.90;;;;;;5028738;28;20561;-70
2023/04/16 02:04:10;;;;;;;12.73;9.60;;;9.70;99.90;;;;;;5034847;28;21100;-71
2023/04/16 02:06:55;;;;;;;13.00;9.37;;;9.70;99.90;;;;;;5030710;28;20950;-71
2023/04/16 02:09:41;;;;;;;13.10;9.30;;;9.70;99.90;;;;;;5027428;28;20450;-72
2023/04/16 02:12:28;;;;;;;12.07;9.97;;;9.70;99.90;;;;;;5025735;28;20524;-71
2023/04/16 02:15:14;;;;;;;12.80;8.83;;;9.70;99.90;;;;;;5031763;28;20574;-71
2023/04/16 02:18:00;;;;;;;15.43;11.37;;;9.80;99.90;;;;;;5036144;28;20474;-72
2023/04/16 02:20:48;;;;;;;18.33;10.47;;;9.70;99.90;;;;;;5035013;28;20801;-71
2023/04/16 02:23:34;;;;;;;15.77;11.07;;;9.70;99.90;;;;;;5020360;28;20446;-71
2023/04/16 02:26:19;;;;;;;18.07;11.57;;;9.60;99.90;;;;;;5021911;28;21012;-72
2023/04/16 02:29:06;;;;;;;14.30;11.43;;;9.50;99.90;;;;;;5026088;28;20512;-72
2023/04/16 02:31:52;;;;;;;16.00;11.53;;;9.60;99.90;;;;;;5030661;28;20455;-71
2023/04/16 02:34:38;;;;;;;16.57;12.23;;;9.70;99.90;;;;;;5025717;28;20473;-72
2023/04/16 02:37:24;;;;;;;16.40;12.87;;;9.60;99.90;;;;;;5020556;28;20456;-71
2023/04/16 02:40:11;;;;;;;19.17;11.77;;;9.60;99.90;;;;;;5021649;28;20433;-70
2023/04/16 02:42:57;;;;;;;16.63;12.20;;;9.60;99.90;;;;;;5025018;28;20507;-70
2023/04/16 02:45:44;;;;;;;14.93;11.77;;;9.50;99.90;;;;;;5021306;28;20853;-71
2023/04/16 02:48:30;;;;;;;19.83;11.03;;;9.60;99.90;;;;;;5025913;28;20577;-71
2023/04/16 02:51:16;;;;;;;15.70;11.77;;;9.70;99.90;;;;;;5030910;28;20497;-71
2023/04/16 02:54:01;;;;;;;15.00;11.67;;;9.70;99.90;;;;;;5027520;28;20590;-71
2023/04/16 02:56:47;;;;;;;16.43;11.53;;;9.60;99.90;;;;;;5028088;28;20471;-71
2023/04/16 02:59:33;;;;;;;18.47;12.40;;;9.60;99.90;;;;;;5029422;28;20448;-72
2023/04/16 03:02:20;;;;;;;15.57;11.57;;;9.70;99.90;;;;;;5015488;28;20568;-70
2023/04/16 03:05:06;;;;;;;17.17;12.60;;;9.70;99.90;;;;;;5028778;28;20594;-71
2023/04/16 03:07:55;;;;;;;16.40;10.57;;;9.70;99.90;;;;;;5028140;28;20471;-72
2023/04/16 03:10:40;;;;;;;18.00;11.70;;;9.70;99.90;;;;;;5024314;28;20988;-71
2023/04/16 03:13:26;;;;;;;17.70;12.17;;;9.70;99.90;;;;;;5020811;28;20463;-71
2023/04/16 03:16:11;;;;;;;17.43;12.60;;;9.60;99.90;;;;;;5025805;28;20503;-72
2023/04/16 03:18:59;;;;;;;16.37;12.63;;;9.50;99.90;;;;;;5025028;28;20450;-71
2023/04/16 03:21:44;;;;;;;18.40;12.77;;;9.50;99.90;;;;;;5021078;28;20492;-72
2023/04/16 03:24:31;;;;;;;17.87;13.00;;;9.50;99.90;;;;;;5020655;28;20480;-72
2023/04/16 03:27:16;;;;;;;16.53;13.13;;;9.50;99.90;;;;;;5028286;28;20832;-72
2023/04/16 03:30:03;;;;;;;18.27;13.40;;;9.50;99.90;;;;;;5024214;28;20534;-70
2023/04/16 03:32:49;;;;;;;16.87;13.33;;;9.60;99.90;;;;;;5024686;28;20831;-72
2023/04/16 03:35:36;;;;;;;15.10;11.97;;;9.60;99.90;;;;;;5019344;28;20976;-72
2023/04/16 03:38:21;;;;;;;17.27;13.07;;;9.60;99.90;;;;;;5025191;28;20473;-71
2023/04/16 03:41:07;;;;;;;13.27;10.57;;;9.50;99.90;;;;;;5037833;28;20810;-70
2023/04/16 03:43:53;;;;;;;15.97;12.30;;;9.50;99.90;;;;;;5028546;28;20460;-71
2023/04/16 03:46:38;;;;;;;16.83;12.20;;;9.50;99.90;;;;;;5022836;28;20482;-71
2023/04/16 03:49:24;;;;;;;19.53;13.10;;;9.50;99.90;;;;;;5029000;28;21014;-71
2023/04/16 03:52:11;;;;;;;18.73;13.63;;;9.40;99.90;;;;;;5032054;28;20453;-72
2023/04/16 03:54:57;;;;;;;23.27;14.73;;;9.50;99.90;;;;;;5031646;28;20444;-72
2023/04/16 03:57:42;;;;;;;16.67;13.17;;;9.50;99.90;;;;;;5026440;28;20481;-72
2023/04/16 04:00:28;;;;;;;19.50;13.90;;;9.50;99.90;;;;;;5029534;28;21163;-71
2023/04/16 04:03:15;;;;;;;18.60;13.87;;;9.60;99.90;;;;;;5024319;28;20444;-71
2023/04/16 04:06:01;;;;;;;17.20;12.23;;;9.60;99.90;;;;;;5029704;28;20456;-71
2023/04/16 04:08:48;;;;;;;19.20;13.43;;;9.50;99.90;;;;;;5025355;28;20449;-70
2023/04/16 04:11:33;;;;;;;17.43;12.67;;;9.60;99.90;;;;;;5026831;28;20536;-71
2023/04/16 04:14:19;;;;;;;20.43;14.27;;;9.60;99.90;;;;;;5023184;28;20450;-71
2023/04/16 04:17:04;;;;;;;19.53;13.07;;;9.50;99.90;;;;;;5026073;28;20477;-71
2023/04/16 04:19:51;;;;;;;22.13;13.90;;;9.50;99.90;;;;;;5024092;28;20539;-70
2023/04/16 04:22:36;;;;;;;20.10;13.30;;;9.50;99.90;;;;;;5025439;28;20494;-71
2023/04/16 04:25:24;;;;;;;17.70;13.10;;;9.50;99.90;;;;;;5030640;28;20966;-71
2023/04/16 04:28:09;;;;;;;21.47;13.80;;;9.50;99.90;;;;;;5023411;28;20498;-70
2023/04/16 04:30:55;;;;;;;18.20;14.00;;;9.50;99.90;;;;;;5030927;28;20921;-71
2023/04/16 04:33:41;;;;;;;18.70;14.17;;;9.50;99.90;;;;;;5019352;28;20539;-71
2023/04/16 04:36:27;;;;;;;17.07;12.97;;;9.50;99.90;;;;;;5020827;28;20512;-71
2023/04/16 04:39:12;;;;;;;23.60;12.70;;;9.50;99.90;;;;;;5021676;28;20448;-70
2023/04/16 04:42:01;;;;;;;18.60;13.97;;;9.60;99.90;;;;;;5021855;28;20541;-71
2023/04/16 04:44:47;;;;;;;16.87;12.67;;;9.60;99.90;;;;;;5024067;28;20533;-71
2023/04/16 04:47:33;;;;;;;16.57;12.67;;;9.60;99.90;;;;;;5030143;28;20889;-70
2023/04/16 04:50:19;;;;;;;21.50;13.77;;;9.60;99.90;;;;;;5028992;28;20450;-71
2023/04/16 04:53:08;;;;;;;17.93;13.57;;;9.50;99.90;;;;;;5025212;28;20474;-71
2023/04/16 04:55:54;;;;;;;15.03;11.90;;;9.50;99.90;;;;;;5021437;28;20442;-70
2023/04/16 04:58:41;;;;;;;18.67;13.30;;;9.50;99.90;;;;;;5030837;28;20513;-71
2023/04/16 05:01:27;;;;;;;19.97;14.37;;;9.40;99.90;;;;;;5018166;28;20455;-71
2023/04/16 05:04:13;;;;;;;16.67;13.20;;;9.40;99.90;;;;;;5017010;28;20451;-72
2023/04/16 05:06:58;;;;;;;18.50;13.40;;;9.40;99.90;;;;;;5023276;28;20543;-71
2023/04/16 05:09:44;;;;;;;17.97;12.53;;;9.50;99.90;;;;;;5023223;28;20426;-72
2023/04/16 05:12:29;;;;;;;22.27;14.30;;;9.50;99.90;;;;;;5020451;28;20445;-71
2023/04/16 05:15:17;;;;;;;19.80;11.90;;;9.50;99.90;;;;;;5021702;28;20451;-72
2023/04/16 05:18:03;;;;;;;19.47;13.57;;;9.50;99.90;;;;;;5016853;28;20958;-72
2023/04/16 05:20:48;;;;;;;21.20;13.60;;;9.40;99.90;;;;;;5013970;28;20450;-72
2023/04/16 05:23:34;;;;;;;16.87;12.43;;;9.50;99.90;;;;;;5021080;28;20493;-71
2023/04/16 05:26:20;;;;;;;18.83;12.90;;;9.40;99.90;;;;;;5025968;28;20592;-71
2023/04/16 05:29:06;;;;;;;15.83;12.37;;;9.50;99.90;;;;;;5020616;28;20448;-71
2023/04/16 05:31:53;;;;;;;17.03;11.87;;;9.60;99.90;;;;;;5022284;28;20462;-71
2023/04/16 05:34:38;;;;;;;17.10;12.13;;;9.60;99.90;;;;;;5030300;28;20494;-71
2023/04/16 05:37:24;;;;;;;16.70;12.77;;;9.60;99.90;;;;;;5023436;28;20484;-71
2023/04/16 05:40:11;;;;;;;18.60;12.57;;;9.70;99.90;;;;;;5023565;28;20472;-71
2023/04/16 05:42:57;;;;;;;26.90;13.67;;;9.70;99.90;;;;;;5033561;28;20513;-71
2023/04/16 05:45:43;;;;;;;17.53;12.27;;;9.70;99.90;;;;;;5031793;28;20445;-72
2023/04/16 05:48:30;;;;;;;20.40;12.80;;;9.60;99.90;;;;;;5040292;28;20449;-72
2023/04/16 05:51:16;;;;;;;17.73;11.97;;;9.70;99.90;;;;;;5035902;28;20445;-71
2023/04/16 05:54:01;;;;;;;17.83;12.20;;;9.70;99.90;;;;;;5018506;28;20968;-71
2023/04/16 05:56:47;;;;;;;16.13;11.70;;;9.70;99.90;;;;;;5028489;28;20490;-71
2023/04/16 05:59:33;;;;;;;15.73;12.13;;;9.70;99.90;;;;;;5030789;28;20537;-70
2023/04/16 06:02:19;;;;;;;18.00;11.63;;;9.70;99.90;;;;;;5025563;28;21099;-71
2023/04/16 06:05:07;;;;;;;16.60;10.97;;;9.80;99.90;;;;;;5029273;28;20445;-72
2023/04/16 06:07:53;;;;;;;16.27;11.50;;;9.70;99.90;;;;;;5036197;28;20461;-71
2023/04/16 06:10:39;;;;;;;13.73;11.37;;;9.70;99.90;;;;;;5026675;28;20476;-71
2023/04/16 06:13:25;;;;;;;14.47;10.97;;;9.60;99.90;;;;;;5040904;28;20983;-71
2023/04/16 06:16:11;;;;;;;16.90;12.10;;;9.60;99.90;;;;;;5024133;28;20463;-71
2023/04/16 06:18:56;;;;;;;16.63;12.13;;;9.60;99.90;;;;;;5026459;28;20474;-71
2023/04/16 06:21:43;;;;;;;16.10;11.40;;;9.50;99.90;;;;;;5022904;28;20537;-71
2023/04/16 06:24:29;;;;;;;17.90;11.77;;;9.60;99.90;;;;;;5024965;28;20454;-71
2023/04/16 06:27:15;;;;;;;15.10;11.40;;;9.60;99.90;;;;;;5021001;28;20475;-71
2023/04/16 06:30:00;;;;;;;15.33;11.57;;;9.60;99.90;;;;;;5025240;28;20589;-70
2023/04/16 06:32:46;;;;;;;16.53;11.80;;;9.60;99.90;;;;;;5031919;28;20446;-72
2023/04/16 06:35:32;;;;;;;16.90;11.53;;;9.60;99.90;;;;;;5032877;28;20961;-72
2023/04/16 06:38:19;;;;;;;15.00;11.47;;;9.60;99.90;;;;;;5020356;28;20438;-71
2023/04/16 06:41:05;;;;;;;18.07;11.70;;;9.60;99.90;;;;;;5023132;28;20447;-71
2023/04/16 06:43:51;;;;;;;15.87;11.87;;;9.60;99.90;;;;;;5031316;28;20441;-71
2023/04/16 06:46:36;;;;;;;15.93;11.80;;;9.70;99.90;;;;;;5024146;28;20480;-70
2023/04/16 06:49:22;;;;;;;18.80;13.27;;;9.70;99.90;;;;;;5017902;28;20418;-71
2023/04/16 06:52:07;;;;;;;19.63;12.87;;;9.60;99.90;;;;;;5021713;28;20470;-72
2023/04/16 06:54:55;;;;;;;19.33;13.40;;;9.60;99.90;;;;;;5022194;28;20744;-71
2023/04/16 06:57:40;;;;;;;18.70;11.93;;;9.60;99.90;;;;;;5031761;28;20953;-69
2023/04/16 07:00:26;;;;;;;17.53;12.73;;;9.60;99.90;;;;;;5025973;28;20859;-71
2023/04/16 07:03:12;;;;;;;17.00;12.43;;;9.70;99.90;;;;;;5021496;28;21006;-72
2023/04/16 07:05:57;;;;;;;19.80;13.37;;;9.70;99.90;;;;;;5018720;28;20783;-71
2023/04/16 07:08:43;;;;;;;20.27;14.20;;;9.70;99.90;;;;;;5033879;28;20443;-72
2023/04/16 07:11:30;;;;;;;17.20;12.87;;;9.50;99.90;;;;;;5027530;28;20435;-71
2023/04/16 07:14:16;;;;;;;15.03;11.40;;;9.60;99.90;;;;;;5024705;28;20450;-71
2023/04/16 07:17:01;;;;;;;15.83;12.10;;;9.60;99.90;;;;;;5027362;28;20477;-71
2023/04/16 07:19:47;;;;;;;15.30;11.27;;;9.60;99.90;;;;;;5020552;28;20581;-71
2023/04/16 07:22:32;;;;;;;16.70;12.67;;;9.60;99.90;;;;;;5029504;28;20454;-71
2023/04/16 07:25:18;;;;;;;18.53;11.90;;;9.60;99.90;;;;;;5034504;28;20495;-72
2023/04/16 07:28:05;;;;;;;23.13;11.80;;;9.60;99.90;;;;;;5026644;28;20529;-71
2023/04/16 07:30:51;;;;;;;17.07;12.40;;;9.70;99.90;;;;;;5026077;28;20449;-71
2023/04/16 07:33:37;;;;;;;17.40;12.27;;;9.70;99.90;;;;;;5021746;28;20527;-71
2023/04/16 07:36:22;;;;;;;18.90;14.30;;;9.70;99.90;;;;;;5037275;28;20485;-71
2023/04/16 07:39:09;;;;;;;19.93;12.50;;;9.80;99.90;;;;;;5028495;28;20585;-71
2023/04/16 07:41:55;;;;;;;20.07;12.30;;;9.80;99.90;;;;;;5031507;28;20813;-72
2023/04/16 07:44:42;;;;;;;19.90;12.07;;;9.80;99.90;;;;;;5030265;28;20442;-71
2023/04/16 07:47:27;;;;;;;16.53;11.73;;;9.90;99.90;;;;;;5027752;28;20831;-71
2023/04/16 07:50:13;;;;;;;17.43;12.63;;;10.00;99.90;;;;;;5023661;28;20444;-71
2023/04/16 07:52:59;;;;;;;18.17;13.17;;;10.00;99.90;;;;;;5036964;28;20451;-71
2023/04/16 07:55:44;;;;;;;19.13;13.77;;;10.00;99.90;;;;;;5025623;28;21034;-71
2023/04/16 07:58:30;;;;;;;20.27;14.60;;;10.20;99.90;;;;;;5032658;28;20465;-71
2023/04/16 08:01:17;;;;;;;18.23;12.60;;;10.10;99.90;;;;;;5032465;28;20470;-71
2023/04/16 08:04:03;;;;;;;23.30;14.07;;;10.10;99.90;;;;;;5034811;28;20451;-71
2023/04/16 08:06:48;;;;;;;18.37;13.40;;;10.00;99.90;;;;;;5030928;28;20491;-70
2023/04/16 08:09:34;;;;;;;23.43;14.60;;;10.10;99.90;;;;;;5026063;28;20588;-71
2023/04/16 08:12:20;;;;;;;22.97;15.37;;;10.10;99.90;;;;;;5027248;28;21091;-71
2023/04/16 08:15:08;;;;;;;22.33;13.73;;;10.00;99.90;;;;;;5023482;28;21804;-71
2023/04/16 08:17:55;;;;;;;22.30;15.17;;;10.10;99.90;;;;;;5024820;28;20471;-71
2023/04/16 08:20:40;;;;;;;21.27;14.70;;;10.10;99.90;;;;;;5025006;28;20580;-72
2023/04/16 08:23:26;;;;;;;19.10;13.17;;;10.10;99.90;;;;;;5026593;28;20453;-71
2023/04/16 08:26:12;;;;;;;20.57;14.00;;;10.10;99.90;;;;;;5033686;28;20491;-71
2023/04/16 08:28:57;;;;;;;22.33;15.40;;;10.10;99.90;;;;;;5028635;28;20445;-71
2023/04/16 08:31:43;;;;;;;16.17;12.07;;;10.10;99.90;;;;;;5026530;28;20493;-71
2023/04/16 08:34:30;;;;;;;18.37;12.70;;;10.10;99.90;;;;;;5021086;28;20520;-71
2023/04/16 08:37:16;;;;;;;17.40;12.53;;;10.20;99.90;;;;;;5032468;28;20485;-71
2023/04/16 08:40:02;;;;;;;18.07;13.13;;;10.30;99.90;;;;;;5018276;28;20472;-71
2023/04/16 08:42:54;;;;;;;14.00;9.90;;;10.20;99.90;;;;;;5019092;28;21130;-71
2023/04/16 08:45:42;;;;;;;12.10;8.53;;;10.20;99.90;;;;;;5021834;28;20589;-71
2023/04/16 08:48:32;;;;;;;12.10;9.00;;;10.30;99.90;;;;;;5023874;28;20536;-71
2023/04/16 08:51:22;;;;;;;13.60;9.47;;;10.20;99.90;;;;;;5017088;28;20456;-71
2023/04/16 08:54:10;;;;;;;11.33;8.50;;;10.20;99.90;;;;;;5021795;28;20442;-71
2023/04/16 08:56:58;;;;;;;9.50;6.97;;;10.20;99.90;;;;;;5027948;28;20547;-72
2023/04/16 08:59:46;;;;;;;10.57;7.53;;;10.10;99.90;;;;;;5027212;28;20504;-71
2023/04/16 09:02:32;;;;;;;11.93;8.37;;;10.10;99.90;;;;;;5033222;28;20515;-71
2023/04/16 09:05:20;;;;;;;12.47;8.57;;;10.10;99.90;;;;;;5025328;28;20596;-71
2023/04/16 09:08:07;;;;;;;10.07;8.17;;;10.10;99.90;;;;;;5022327;28;20544;-70
2023/04/16 09:10:53;;;;;;;12.03;8.60;;;10.10;99.90;;;;;;5030503;28;20515;-71
2023/04/16 09:13:39;;;;;;;11.40;7.80;;;10.00;99.90;;;;;;5028729;28;20455;-71
2023/04/16 09:16:26;;;;;;;10.10;7.43;;;10.10;99.90;;;;;;5030168;28;20546;-71
2023/04/16 09:19:11;;;;;;;9.10;6.47;;;10.10;99.90;;;;;;5031974;28;20469;-71
2023/04/16 09:21:57;;;;;;;10.33;6.90;;;10.10;99.90;;;;;;5028592;28;20452;-71
2023/04/16 09:24:44;;;;;;;13.93;7.50;;;10.10;99.90;;;;;;5023556;28;20470;-71
2023/04/16 09:27:31;;;;;;;10.00;7.20;;;10.10;99.90;;;;;;5026492;28;20472;-71
2023/04/16 09:30:21;;;;;;;9.50;7.03;;;10.00;99.90;;;;;;5023052;28;20452;-71
2023/04/16 09:33:16;;;;;;;10.40;7.27;;;10.10;99.90;;;;;;5019389;28;20516;-71
2023/04/16 09:36:02;;;;;;;10.53;6.83;;;10.10;99.90;;;;;;5022069;28;20466;-71
2023/04/16 09:38:49;;;;;;;8.70;6.50;;;10.10;99.90;;;;;;5035418;28;20469;-72
2023/04/16 09:41:38;;;;;;;10.43;7.43;;;10.10;99.90;;;;;;5026208;28;20471;-71
2023/04/16 09:44:35;;;;;;;10.87;7.57;;;10.10;99.90;;;;;;5030412;28;20535;-71
2023/04/16 09:47:22;;;;;;;9.43;6.40;;;10.00;99.90;;;;;;5032648;28;20469;-71
2023/04/16 09:50:09;;;;;;;9.70;7.10;;;10.00;99.90;;;;;;5041370;28;20445;-71
2023/04/16 09:52:54;;;;;;;9.40;7.20;;;10.10;99.90;;;;;;5024722;28;20787;-71
2023/04/16 09:55:42;;;;;;;10.20;7.70;;;10.00;99.90;;;;;;5026356;28;20445;-71
2023/04/16 09:58:29;;;;;;;9.87;7.83;;;10.00;99.90;;;;;;5038789;28;21013;-71
2023/04/16 10:01:16;;;;;;;10.53;7.60;;;10.10;99.90;;;;;;5027257;28;20903;-71
2023/04/16 10:04:01;;;;;;;11.90;8.00;;;10.10;99.90;;;;;;5029765;28;20421;-71
2023/04/16 10:07:03;;;;;;;10.67;8.10;;;10.10;99.90;;;;;;5027494;28;20477;-71
2023/04/16 10:09:51;;;;;;;16.80;9.93;;;10.10;99.90;;;;;;5033703;28;20437;-71
2023/04/16 10:12:36;;;;;;;13.20;8.60;;;10.10;99.90;;;;;;5033733;28;20451;-71
2023/04/16 10:15:24;;;;;;;15.07;9.73;;;10.10;99.90;;;;;;5034755;28;20452;-71
2023/04/16 10:18:10;;;;;;;14.00;10.60;;;10.20;99.90;;;;;;5021367;28;20466;-71
2023/04/16 10:20:57;;;;;;;12.93;8.97;;;10.10;99.90;;;;;;5032877;28;20441;-71
2023/04/16 10:23:43;;;;;;;15.43;11.83;;;10.10;99.90;;;;;;5020464;28;20451;-71
2023/04/16 10:26:30;;;;;;;17.27;11.97;;;10.20;99.90;;;;;;5027064;28;20463;-71
2023/04/16 10:29:16;;;;;;;15.90;12.07;;;10.20;99.90;;;;;;5033563;28;20500;-71
2023/04/16 10:32:04;;;;;;;17.37;12.77;;;10.30;99.90;;;;;;5023523;28;20418;-71
2023/04/16 10:34:49;;;;;;;16.30;12.03;;;10.30;99.90;;;;;;5035545;28;20917;-71
2023/04/16 10:37:37;;;;;;;20.23;14.53;;;10.20;99.90;;;;;;5038720;28;20475;-71
2023/04/16 10:40:24;;;;;;;20.00;13.47;;;10.20;99.90;;;;;;5036513;28;20470;-71
2023/04/16 10:43:17;;;;;;;16.30;13.60;;;10.20;99.90;;;;;;5022170;28;20505;-71
2023/04/16 10:46:18;;;;;;;18.23;12.40;;;10.30;99.90;;;;;;5032178;28;20449;-71
2023/04/16 10:49:13;;;;;;;16.50;12.77;;;10.20;99.90;;;;;;5035521;28;20488;-71
2023/04/16 10:52:02;;;;;;;16.60;12.37;;;10.30;99.90;;;;;;5021380;28;20934;-71
2023/04/16 10:54:48;;;;;;;18.20;12.90;;;10.40;99.90;;;;;;5037141;28;20618;-71
2023/04/16 10:57:34;;;;;;;20.00;13.70;;;10.40;99.90;;;;;;5035287;28;20575;-71
2023/04/16 11:00:23;;;;;;;18.70;14.07;;;10.40;99.90;;;;;;5027216;28;20479;-71
2023/04/16 11:03:09;;;;;;;21.00;12.67;;;10.40;99.90;;;;;;5027467;28;20819;-71
2023/04/16 11:06:10;;;;;;;17.87;12.97;;;10.50;99.90;;;;;;5037247;28;21033;-71
2023/04/16 11:08:56;;;;;;;16.60;12.63;;;10.50;99.90;;;;;;5026285;28;20421;-71
2023/04/16 11:11:42;;;;;;;16.23;12.67;;;10.60;99.90;;;;;;5024063;28;20454;-71
2023/04/16 11:14:28;;;;;;;16.77;12.50;;;10.60;99.90;;;;;;5033322;28;20463;-71
2023/04/16 11:17:13;;;;;;;17.87;13.30;;;10.60;99.90;;;;;;5026613;28;20472;-71
2023/04/16 11:19:59;;;;;;;20.50;15.03;;;10.70;99.90;;;;;;5025882;28;20474;-71
2023/04/16 11:22:46;;;;;;;16.47;13.10;;;10.80;99.90;;;;;;5021246;28;20446;-71
2023/04/16 11:25:32;;;;;;;20.83;13.93;;;10.80;99.90;;;;;;5032271;28;20441;-72
2023/04/16 11:28:18;;;;;;;18.43;13.83;;;10.80;99.90;;;;;;5025165;28;20542;-71
2023/04/16 11:31:11;;;;;;;19.67;14.87;;;10.80;99.90;;;;;;5017737;28;20451;-71
2023/04/16 11:33:58;;;;;;;23.03;15.20;;;10.80;99.90;;;;;;5026422;28;20537;-71
2023/04/16 11:36:44;;;;;;;18.80;13.77;;;10.90;99.90;;;;;;5024879;28;20472;-71
2023/04/16 11:39:31;;;;;;;23.43;16.30;;;10.90;99.90;;;;;;5025697;28;20839;-71
2023/04/16 11:42:21;;;;;;;20.13;14.63;;;11.00;99.90;;;;;;5018558;28;20593;-71
2023/04/16 11:45:09;;;;;;;21.40;15.20;;;11.10;99.90;;;;;;5024088;28;20450;-71
2023/04/16 11:47:56;;;;;;;20.40;15.10;;;11.20;99.90;;;;;;5025746;28;21110;-71
2023/04/16 11:50:42;;;;;;;21.37;14.87;;;11.30;99.90;;;;;;5028448;28;20472;-71
2023/04/16 11:53:27;;;;;;;21.83;15.00;;;11.50;99.90;;;;;;5029254;28;20446;-71
2023/04/16 11:56:14;;;;;;;18.77;13.77;;;11.50;99.90;;;;;;5019885;28;20436;-71
2023/04/16 11:59:10;;;;;;;21.00;15.00;;;11.70;99.90;;;;;;5019367;28;20426;-71
2023/04/16 12:01:56;;;;;;;18.80;14.30;;;11.70;99.90;;;;;;5027645;28;20450;-71
2023/04/16 12:04:41;;;;;;;19.80;14.83;;;11.60;99.90;;;;;;5028599;28;20804;-71
2023/04/16 12:07:27;;;;;;;18.90;14.73;;;11.70;99.90;;;;;;5024575;28;20445;-71
2023/04/16 12:10:12;;;;;;;18.87;13.80;;;11.60;99.90;;;;;;5027598;28;20508;-71
2023/04/16 12:13:12;;;;;;;16.77;12.60;;;11.70;99.90;;;;;;5026788;28;20527;-71
2023/04/16 12:15:58;;;;;;;20.83;16.10;;;11.70;99.90;;;;;;5021970;28;20467;-71
2023/04/16 12:19:00;;;;;;;20.53;14.70;;;11.70;99.90;;;;;;5025862;28;20554;-71
2023/04/16 12:21:46;;;;;;;16.60;13.23;;;11.70;99.90;;;;;;5025933;28;20455;-71
2023/04/16 12:24:32;;;;;;;20.73;14.20;;;11.70;99.90;;;;;;5027006;28;20987;-71
2023/04/16 12:27:18;;;;;;;18.47;12.97;;;11.60;99.90;;;;;;5026773;28;21118;-71
2023/04/16 12:30:09;;;;;;;18.37;14.07;;;11.60;99.90;;;;;;5028505;28;20420;-71
2023/04/16 12:33:15;;;;;;;17.30;12.97;;;11.60;99.90;;;;;;5028075;28;20426;-71
2023/04/16 12:36:03;;;;;;;18.30;13.43;;;11.70;99.90;;;;;;5023146;28;20498;-71
2023/04/16 12:38:48;;;;;;;16.87;14.03;;;11.80;99.90;;;;;;5027193;28;20845;-71
2023/04/16 12:41:37;;;;;;;18.70;12.50;;;11.90;99.90;;;;;;5023053;28;20491;-71
2023/04/16 12:44:22;;;;;;;18.43;12.83;;;11.90;99.90;;;;;;5026586;28;20421;-71
2023/04/16 12:47:10;;;;;;;15.90;12.20;;;12.00;99.90;;;;;;5023788;28;20437;-71
2023/04/16 12:49:56;;;;;;;16.73;12.10;;;11.90;99.90;;;;;;5023327;28;20442;-71
2023/04/16 12:52:42;;;;;;;14.83;11.47;;;11.90;99.90;;;;;;5027663;28;20450;-71
2023/04/16 12:55:28;;;;;;;15.87;11.80;;;11.90;99.90;;;;;;5027497;28;20428;-72
2023/04/16 12:58:14;;;;;;;15.83;11.53;;;11.90;99.90;;;;;;5021854;28;21024;-71
2023/04/16 13:00:59;;;;;;;14.40;11.17;;;11.90;99.90;;;;;;5020534;28;20474;-71
2023/04/16 13:03:47;;;;;;;14.90;10.90;;;12.00;99.90;;;;;;5026510;28;20529;-71
2023/04/16 13:06:32;;;;;;;15.07;12.20;;;11.90;99.90;;;;;;5028089;28;21005;-71
2023/04/16 13:09:19;;;;;;;13.47;11.20;;;11.90;99.90;;;;;;5020524;28;20436;-71
2023/04/16 13:12:05;;;;;;;13.60;11.07;;;11.80;99.90;;;;;;5022860;28;20442;-71
2023/04/16 13:14:50;;;;;;;15.63;11.67;;;11.80;99.90;;;;;;5028296;28;20984;-71
2023/04/16 13:17:36;;;;;;;13.93;11.03;;;11.80;99.90;;;;;;5022695;28;20968;-71
2023/04/16 13:20:23;;;;;;;16.50;11.90;;;11.80;99.90;;;;;;5023807;28;20626;-71
2023/04/16 13:23:09;;;;;;;14.80;12.30;;;11.70;99.90;;;;;;5020260;28;20575;-71
2023/04/16 13:25:54;;;;;;;15.10;11.73;;;11.70;99.90;;;;;;5017906;28;20555;-71
2023/04/16 13:28:40;;;;;;;17.03;12.93;;;11.70;99.90;;;;;;5028605;28;20445;-71
2023/04/16 13:31:26;;;;;;;13.40;11.27;;;11.70;99.90;;;;;;5028394;28;20462;-71
2023/04/16 13:34:11;;;;;;;14.20;11.80;;;11.70;99.90;;;;;;5017032;28;20507;-71
2023/04/16 13:36:58;;;;;;;14.87;11.70;;;11.70;99.90;;;;;;5022621;28;20614;-71
2023/04/16 13:39:44;;;;;;;16.27;13.40;;;11.70;99.90;;;;;;5023792;28;20486;-71
2023/04/16 13:42:31;;;;;;;13.20;11.50;;;11.70;99.90;;;;;;5013453;28;20599;-71
2023/04/16 13:45:16;;;;;;;17.10;11.70;;;11.70;99.90;;;;;;5028102;28;20482;-71
2023/04/16 13:48:02;;;;;;;15.80;11.90;;;11.70;99.90;;;;;;5029599;28;20477;-71
2023/04/16 13:50:48;;;;;;;15.80;12.80;;;11.60;99.90;;;;;;5024961;28;20452;-71
2023/04/16 13:53:35;;;;;;;16.43;12.80;;;11.60;99.90;;;;;;5028882;28;20572;-71
2023/04/16 13:56:21;;;;;;;15.60;12.27;;;11.60;99.90;;;;;;5020045;28;20481;-71
2023/04/16 13:59:06;;;;;;;15.70;12.57;;;11.50;99.90;;;;;;5023526;28;20807;-71
2023/04/16 14:01:52;;;;;;;16.47;12.23;;;11.50;99.90;;;;;;5022571;28;20537;-71
2023/04/16 14:04:37;;;;;;;14.63;12.23;;;11.50;99.90;;;;;;5020350;28;20420;-71
2023/04/16 14:07:25;;;;;;;18.03;12.53;;;11.60;99.90;;;;;;5033524;28;21025;-71
2023/04/16 14:10:12;;;;;;;15.70;12.10;;;11.60;99.90;;;;;;5023824;28;20466;-71
2023/04/16 14:12:58;;;;;;;17.60;12.77;;;11.60;99.90;;;;;;5030099;28;20503;-71
2023/04/16 14:15:44;;;;;;;17.57;12.07;;;11.60;99.90;;;;;;5024246;28;20801;-71